FMMI/TNR METAR and TAF weather

Enter ICAO airport designator
Station Type Date Time Source
FMMI METAR 2021/05/15 02:30 UTC NOAA

FMMI 150230Z 15006KT 120V180 9999 FEW017 BKN020 16/14 Q1022 NOSIG


Station Type Date Time Source
FMMI Decoded METAR 2021/05/15 02:30 UTC NOAA

Antananarivo / Ivato, Madagascar (FMMI) 18-48S 047-29E 1276M
May 14, 2021 - 10:30 PM EDT / 2021.05.15 0230 UTC
Wind: from the SSE (150 degrees) at 7 MPH (6 KT) (direction variable):0
Visibility: greater than 7 mile(s):0
Sky conditions: mostly cloudy
Temperature: 60 F (16 C)
Dew Point: 57 F (14 C)
Relative Humidity: 87%
Pressure (altimeter): 30.18 in. Hg (1022 hPa)
ob: FMMI 150230Z 15006KT 120V180 9999 FEW017 BKN020 16/14 Q1022 NOSIG
cycle: 2

Station Type Date Time Source
FMMI TAF 2021/05/14 18:03 UTC NOAA

TAF FMMI 141700Z 1418/1524 14008KT 9999 FEW017 BKN020

Example: see airport list